sensor_id;sensor_type;location;lat;lon;timestamp;temperature;humidity
13713;DHT22;6928;50.546;7.120;2022-11-15T00:00:44;12.69;85.75
13713;DHT22;6928;50.546;7.120;2022-11-15T00:03:13;12.77;85.40
13713;DHT22;6928;50.546;7.120;2022-11-15T00:05:39;12.57;85.77
13713;DHT22;6928;50.546;7.120;2022-11-15T00:08:07;12.60;85.93
13713;DHT22;6928;50.546;7.120;2022-11-15T00:10:34;12.46;86.22
13713;DHT22;6928;50.546;7.120;2022-11-15T00:13:04;12.34;86.95
13713;DHT22;6928;50.546;7.120;2022-11-15T00:15:31;12.32;86.82
13713;DHT22;6928;50.546;7.120;2022-11-15T00:17:58;12.46;86.31
13713;DHT22;6928;50.546;7.120;2022-11-15T00:20:24;12.28;87.12
13713;DHT22;6928;50.546;7.120;2022-11-15T00:22:51;12.32;86.90
13713;DHT22;6928;50.546;7.120;2022-11-15T00:25:19;12.22;87.27
13713;DHT22;6928;50.546;7.120;2022-11-15T00:27:45;12.25;87.38
13713;DHT22;6928;50.546;7.120;2022-11-15T00:30:12;12.01;87.95
13713;DHT22;6928;50.546;7.120;2022-11-15T00:32:39;11.99;88.06
13713;DHT22;6928;50.546;7.120;2022-11-15T00:35:06;12.01;88.15
13713;DHT22;6928;50.546;7.120;2022-11-15T00:37:33;11.99;88.13
13713;DHT22;6928;50.546;7.120;2022-11-15T00:40:00;11.93;88.44
13713;DHT22;6928;50.546;7.120;2022-11-15T00:42:28;11.91;88.54
13713;DHT22;6928;50.546;7.120;2022-11-15T00:44:54;12.04;88.46
13713;DHT22;6928;50.546;7.120;2022-11-15T00:47:21;11.98;88.61
13713;DHT22;6928;50.546;7.120;2022-11-15T00:49:47;12.09;88.22
13713;DHT22;6928;50.546;7.120;2022-11-15T00:52:14;11.99;88.61
13713;DHT22;6928;50.546;7.120;2022-11-15T00:54:40;11.88;88.82
13713;DHT22;6928;50.546;7.120;2022-11-15T00:57:07;11.76;89.16
13713;DHT22;6928;50.546;7.120;2022-11-15T00:59:35;11.84;89.16
13713;DHT22;6928;50.546;7.120;2022-11-15T01:02:02;11.87;88.90
13713;DHT22;6928;50.546;7.120;2022-11-15T01:04:29;11.77;89.02
13713;DHT22;6928;50.546;7.120;2022-11-15T01:06:56;11.74;89.31
13713;DHT22;6928;50.546;7.120;2022-11-15T01:09:22;11.67;89.49
13713;DHT22;6928;50.546;7.120;2022-11-15T01:11:49;11.69;89.49
13713;DHT22;6928;50.546;7.120;2022-11-15T01:14:15;11.71;89.43
13713;DHT22;6928;50.546;7.120;2022-11-15T01:16:43;11.70;89.33
13713;DHT22;6928;50.546;7.120;2022-11-15T01:19:17;11.78;89.17
13713;DHT22;6928;50.546;7.120;2022-11-15T01:21:44;11.69;89.26
13713;DHT22;6928;50.546;7.120;2022-11-15T01:24:12;11.67;89.34
13713;DHT22;6928;50.546;7.120;2022-11-15T01:26:39;11.74;89.08
13713;DHT22;6928;50.546;7.120;2022-11-15T01:29:05;11.66;89.21
13713;DHT22;6928;50.546;7.120;2022-11-15T01:31:32;11.57;89.27
13713;DHT22;6928;50.546;7.120;2022-11-15T01:34:00;11.65;88.91
13713;DHT22;6928;50.546;7.120;2022-11-15T01:36:27;11.50;89.30
13713;DHT22;6928;50.546;7.120;2022-11-15T01:38:53;11.42;89.42
13713;DHT22;6928;50.546;7.120;2022-11-15T01:41:22;11.28;89.54
13713;DHT22;6928;50.546;7.120;2022-11-15T01:43:52;11.35;89.35
13713;DHT22;6928;50.546;7.120;2022-11-15T01:46:25;11.29;89.58
13713;DHT22;6928;50.546;7.120;2022-11-15T01:48:54;11.32;89.51
13713;DHT22;6928;50.546;7.120;2022-11-15T01:51:26;11.42;89.23
13713;DHT22;6928;50.546;7.120;2022-11-15T01:53:56;11.36;89.45
13713;DHT22;6928;50.546;7.120;2022-11-15T01:56:25;11.29;89.61
13713;DHT22;6928;50.546;7.120;2022-11-15T01:58:57;11.26;89.75
13713;DHT22;6928;50.546;7.120;2022-11-15T02:01:25;11.23;89.90
13713;DHT22;6928;50.546;7.120;2022-11-15T02:03:58;11.26;89.66
13713;DHT22;6928;50.546;7.120;2022-11-15T02:06:26;11.52;89.72
13713;DHT22;6928;50.546;7.120;2022-11-15T02:08:54;11.99;88.54
13713;DHT22;6928;50.546;7.120;2022-11-15T02:11:21;12.20;88.28
13713;DHT22;6928;50.546;7.120;2022-11-15T02:13:47;12.21;88.46
13713;DHT22;6928;50.546;7.120;2022-11-15T02:16:20;12.44;87.80
13713;DHT22;6928;50.546;7.120;2022-11-15T02:18:55;12.81;86.15
13713;DHT22;6928;50.546;7.120;2022-11-15T02:21:28;12.18;87.26
13713;DHT22;6928;50.546;7.120;2022-11-15T02:30:24;11.70;88.66
13713;DHT22;6928;50.546;7.120;2022-11-15T02:32:54;11.55;88.98
13713;DHT22;6928;50.546;7.120;2022-11-15T02:35:29;11.81;88.58
13713;DHT22;6928;50.546;7.120;2022-11-15T02:38:06;11.53;89.08
13713;DHT22;6928;50.546;7.120;2022-11-15T02:40:39;11.99;88.25
13713;DHT22;6928;50.546;7.120;2022-11-15T02:43:10;11.81;88.15
13713;DHT22;6928;50.546;7.120;2022-11-15T02:46:02;11.50;89.14
13713;DHT22;6928;50.546;7.120;2022-11-15T02:48:31;11.63;89.21
13713;DHT22;6928;50.546;7.120;2022-11-15T02:50:58;12.02;88.53
13713;DHT22;6928;50.546;7.120;2022-11-15T02:53:25;12.05;88.23
13713;DHT22;6928;50.546;7.120;2022-11-15T02:55:53;11.94;88.48
13713;DHT22;6928;50.546;7.120;2022-11-15T02:58:40;11.83;88.64
13713;DHT22;6928;50.546;7.120;2022-11-15T03:01:18;11.62;89.43
13713;DHT22;6928;50.546;7.120;2022-11-15T03:03:59;11.53;89.55
13713;DHT22;6928;50.546;7.120;2022-11-15T03:06:34;11.60;89.43
13713;DHT22;6928;50.546;7.120;2022-11-15T03:09:07;11.56;89.39
13713;DHT22;6928;50.546;7.120;2022-11-15T03:11:38;11.60;89.55
13713;DHT22;6928;50.546;7.120;2022-11-15T03:14:12;11.66;89.18
13713;DHT22;6928;50.546;7.120;2022-11-15T03:16:48;11.62;89.32
13713;DHT22;6928;50.546;7.120;2022-11-15T03:19:22;11.57;89.63
13713;DHT22;6928;50.546;7.120;2022-11-15T03:21:52;11.66;89.36
13713;DHT22;6928;50.546;7.120;2022-11-15T03:24:22;11.69;89.31
13713;DHT22;6928;50.546;7.120;2022-11-15T03:26:52;11.78;89.25
13713;DHT22;6928;50.546;7.120;2022-11-15T03:29:24;12.08;88.79
13713;DHT22;6928;50.546;7.120;2022-11-15T03:31:56;12.36;87.93
13713;DHT22;6928;50.546;7.120;2022-11-15T03:34:28;12.39;87.87
13713;DHT22;6928;50.546;7.120;2022-11-15T03:36:56;12.31;88.01
13713;DHT22;6928;50.546;7.120;2022-11-15T03:39:23;12.57;87.66
13713;DHT22;6928;50.546;7.120;2022-11-15T03:41:56;12.75;87.09
13713;DHT22;6928;50.546;7.120;2022-11-15T03:44:36;12.70;87.30
13713;DHT22;6928;50.546;7.120;2022-11-15T03:47:10;12.73;87.08
13713;DHT22;6928;50.546;7.120;2022-11-15T03:49:42;12.62;87.59
13713;DHT22;6928;50.546;7.120;2022-11-15T03:52:09;12.48;88.03
13713;DHT22;6928;50.546;7.120;2022-11-15T03:54:36;12.44;88.13
13713;DHT22;6928;50.546;7.120;2022-11-15T03:57:03;12.38;88.53
13713;DHT22;6928;50.546;7.120;2022-11-15T03:59:30;12.25;88.69
13713;DHT22;6928;50.546;7.120;2022-11-15T04:01:56;12.24;88.83
13713;DHT22;6928;50.546;7.120;2022-11-15T04:04:24;12.24;88.85
13713;DHT22;6928;50.546;7.120;2022-11-15T04:06:51;12.21;88.89
13713;DHT22;6928;50.546;7.120;2022-11-15T04:09:18;12.09;89.42
13713;DHT22;6928;50.546;7.120;2022-11-15T04:11:47;12.11;89.51
13713;DHT22;6928;50.546;7.120;2022-11-15T04:14:13;12.01;89.78
13713;DHT22;6928;50.546;7.120;2022-11-15T04:16:40;12.07;89.67
13713;DHT22;6928;50.546;7.120;2022-11-15T04:19:07;11.94;90.17
13713;DHT22;6928;50.546;7.120;2022-11-15T04:21:52;11.93;90.28
13713;DHT22;6928;50.546;7.120;2022-11-15T04:24:36;11.88;90.36
13713;DHT22;6928;50.546;7.120;2022-11-15T04:27:03;11.80;90.66
13713;DHT22;6928;50.546;7.120;2022-11-15T04:29:29;11.78;90.71
13713;DHT22;6928;50.546;7.120;2022-11-15T04:32:02;11.78;90.71
13713;DHT22;6928;50.546;7.120;2022-11-15T04:34:29;11.84;90.36
13713;DHT22;6928;50.546;7.120;2022-11-15T04:36:58;11.94;89.81
13713;DHT22;6928;50.546;7.120;2022-11-15T04:39:42;11.97;89.73
13713;DHT22;6928;50.546;7.120;2022-11-15T04:42:09;11.93;89.93
13713;DHT22;6928;50.546;7.120;2022-11-15T04:44:36;11.87;90.02
13713;DHT22;6928;50.546;7.120;2022-11-15T04:47:03;11.84;90.07
13713;DHT22;6928;50.546;7.120;2022-11-15T04:49:29;11.87;89.91
13713;DHT22;6928;50.546;7.120;2022-11-15T04:51:57;11.87;89.52
13713;DHT22;6928;50.546;7.120;2022-11-15T04:54:24;11.91;89.22
13713;DHT22;6928;50.546;7.120;2022-11-15T04:56:51;12.45;85.11
13713;DHT22;6928;50.546;7.120;2022-11-15T04:59:17;12.49;84.84
13713;DHT22;6928;50.546;7.120;2022-11-15T05:01:44;12.48;84.61
13713;DHT22;6928;50.546;7.120;2022-11-15T05:04:11;12.63;83.39
13713;DHT22;6928;50.546;7.120;2022-11-15T05:06:50;12.60;83.43
13713;DHT22;6928;50.546;7.120;2022-11-15T05:09:19;12.62;82.97
13713;DHT22;6928;50.546;7.120;2022-11-15T05:11:46;12.66;82.57
13713;DHT22;6928;50.546;7.120;2022-11-15T05:14:13;12.76;81.94
13713;DHT22;6928;50.546;7.120;2022-11-15T05:16:40;12.55;82.52
13713;DHT22;6928;50.546;7.120;2022-11-15T05:19:07;12.60;81.71
13713;DHT22;6928;50.546;7.120;2022-11-15T05:21:34;12.57;81.62
13713;DHT22;6928;50.546;7.120;2022-11-15T05:24:02;12.66;80.77
13713;DHT22;6928;50.546;7.120;2022-11-15T05:26:30;12.56;81.23
13713;DHT22;6928;50.546;7.120;2022-11-15T05:28:58;12.62;80.66
13713;DHT22;6928;50.546;7.120;2022-11-15T05:31:26;12.48;81.31
13713;DHT22;6928;50.546;7.120;2022-11-15T05:33:54;12.28;82.08
13713;DHT22;6928;50.546;7.120;2022-11-15T05:36:27;12.36;81.51
13713;DHT22;6928;50.546;7.120;2022-11-15T05:38:54;12.32;81.54
13713;DHT22;6928;50.546;7.120;2022-11-15T05:41:26;12.20;81.95
13713;DHT22;6928;50.546;7.120;2022-11-15T05:43:54;12.17;82.13
13713;DHT22;6928;50.546;7.120;2022-11-15T05:46:21;11.91;83.02
13713;DHT22;6928;50.546;7.120;2022-11-15T05:48:50;11.93;83.23
13713;DHT22;6928;50.546;7.120;2022-11-15T05:51:19;11.98;82.66
13713;DHT22;6928;50.546;7.120;2022-11-15T05:53:47;11.87;83.08
13713;DHT22;6928;50.546;7.120;2022-11-15T05:56:14;11.81;83.34
13713;DHT22;6928;50.546;7.120;2022-11-15T05:58:41;11.73;84.02
13713;DHT22;6928;50.546;7.120;2022-11-15T06:01:10;11.55;84.57
13713;DHT22;6928;50.546;7.120;2022-11-15T06:03:37;11.74;83.84
13713;DHT22;6928;50.546;7.120;2022-11-15T06:06:03;11.62;84.30
13713;DHT22;6928;50.546;7.120;2022-11-15T06:08:30;11.73;83.81
13713;DHT22;6928;50.546;7.120;2022-11-15T06:11:03;11.70;84.14
13713;DHT22;6928;50.546;7.120;2022-11-15T06:13:30;11.56;84.63
13713;DHT22;6928;50.546;7.120;2022-11-15T06:15:57;11.49;84.61
13713;DHT22;6928;50.546;7.120;2022-11-15T06:18:25;11.77;83.81
13713;DHT22;6928;50.546;7.120;2022-11-15T06:20:51;11.57;83.99
13713;DHT22;6928;50.546;7.120;2022-11-15T06:23:18;11.47;84.80
13713;DHT22;6928;50.546;7.120;2022-11-15T06:25:45;11.49;84.16
13713;DHT22;6928;50.546;7.120;2022-11-15T06:28:11;11.57;83.38
13713;DHT22;6928;50.546;7.120;2022-11-15T06:30:38;11.53;83.81
13713;DHT22;6928;50.546;7.120;2022-11-15T06:33:06;11.42;84.30
13713;DHT22;6928;50.546;7.120;2022-11-15T06:35:36;11.40;84.29
13713;DHT22;6928;50.546;7.120;2022-11-15T06:38:04;11.30;84.45
13713;DHT22;6928;50.546;7.120;2022-11-15T06:40:33;11.36;83.98
13713;DHT22;6928;50.546;7.120;2022-11-15T06:43:00;11.32;84.08
13713;DHT22;6928;50.546;7.120;2022-11-15T06:45:26;11.28;84.36
13713;DHT22;6928;50.546;7.120;2022-11-15T06:47:53;11.25;84.30
13713;DHT22;6928;50.546;7.120;2022-11-15T06:50:20;11.20;84.04
13713;DHT22;6928;50.546;7.120;2022-11-15T06:52:49;11.36;83.84
13713;DHT22;6928;50.546;7.120;2022-11-15T06:55:16;11.32;83.51
13713;DHT22;6928;50.546;7.120;2022-11-15T06:57:47;11.35;83.46
13713;DHT22;6928;50.546;7.120;2022-11-15T07:00:16;11.29;83.54
13713;DHT22;6928;50.546;7.120;2022-11-15T07:02:43;11.14;83.98
13713;DHT22;6928;50.546;7.120;2022-11-15T07:05:10;11.20;83.72
13713;DHT22;6928;50.546;7.120;2022-11-15T07:07:36;11.14;84.05
13713;DHT22;6928;50.546;7.120;2022-11-15T07:10:06;11.11;84.63
13713;DHT22;6928;50.546;7.120;2022-11-15T07:12:33;10.95;84.83
13713;DHT22;6928;50.546;7.120;2022-11-15T07:14:59;10.84;85.29
13713;DHT22;6928;50.546;7.120;2022-11-15T07:17:26;10.84;85.26
13713;DHT22;6928;50.546;7.120;2022-11-15T07:19:53;10.91;85.30
13713;DHT22;6928;50.546;7.120;2022-11-15T07:22:19;10.57;86.43
13713;DHT22;6928;50.546;7.120;2022-11-15T07:24:46;10.50;86.57
13713;DHT22;6928;50.546;7.120;2022-11-15T07:27:14;10.40;86.87
13713;DHT22;6928;50.546;7.120;2022-11-15T07:29:41;10.50;86.70
13713;DHT22;6928;50.546;7.120;2022-11-15T07:32:07;10.68;86.19
13713;DHT22;6928;50.546;7.120;2022-11-15T07:34:34;10.60;86.03
13713;DHT22;6928;50.546;7.120;2022-11-15T07:37:00;10.49;86.70
13713;DHT22;6928;50.546;7.120;2022-11-15T07:39:27;10.51;86.47
13713;DHT22;6928;50.546;7.120;2022-11-15T07:41:54;10.50;86.79
13713;DHT22;6928;50.546;7.120;2022-11-15T07:44:42;10.44;87.00
13713;DHT22;6928;50.546;7.120;2022-11-15T07:47:08;10.46;86.81
13713;DHT22;6928;50.546;7.120;2022-11-15T07:49:35;10.36;86.92
13713;DHT22;6928;50.546;7.120;2022-11-15T07:52:02;10.46;86.73
13713;DHT22;6928;50.546;7.120;2022-11-15T07:54:28;10.92;84.59
13713;DHT22;6928;50.546;7.120;2022-11-15T07:56:55;11.12;83.63
13713;DHT22;6928;50.546;7.120;2022-11-15T07:59:22;11.49;81.98
13713;DHT22;6928;50.546;7.120;2022-11-15T08:01:50;11.40;82.42
13713;DHT22;6928;50.546;7.120;2022-11-15T08:04:16;11.53;81.81
13713;DHT22;6928;50.546;7.120;2022-11-15T08:06:43;11.52;82.18
13713;DHT22;6928;50.546;7.120;2022-11-15T08:09:09;11.55;81.60
13713;DHT22;6928;50.546;7.120;2022-11-15T08:11:36;11.57;81.46
13713;DHT22;6928;50.546;7.120;2022-11-15T08:14:03;11.63;81.36
13713;DHT22;6928;50.546;7.120;2022-11-15T08:16:30;11.73;80.84
13713;DHT22;6928;50.546;7.120;2022-11-15T08:18:58;11.77;80.48
13713;DHT22;6928;50.546;7.120;2022-11-15T08:21:25;11.73;80.96
13713;DHT22;6928;50.546;7.120;2022-11-15T08:23:52;11.80;80.41
13713;DHT22;6928;50.546;7.120;2022-11-15T08:26:18;11.91;79.81
13713;DHT22;6928;50.546;7.120;2022-11-15T08:28:45;11.88;79.92
13713;DHT22;6928;50.546;7.120;2022-11-15T08:31:14;11.97;78.81
13713;DHT22;6928;50.546;7.120;2022-11-15T08:33:42;12.04;78.28
13713;DHT22;6928;50.546;7.120;2022-11-15T08:36:13;12.08;77.86
13713;DHT22;6928;50.546;7.120;2022-11-15T08:38:39;12.04;78.76
13713;DHT22;6928;50.546;7.120;2022-11-15T08:41:06;12.02;79.58
13713;DHT22;6928;50.546;7.120;2022-11-15T08:43:33;12.04;78.72
13713;DHT22;6928;50.546;7.120;2022-11-15T08:46:00;12.05;78.88
13713;DHT22;6928;50.546;7.120;2022-11-15T08:48:27;12.07;78.51
13713;DHT22;6928;50.546;7.120;2022-11-15T08:50:54;12.08;78.30
13713;DHT22;6928;50.546;7.120;2022-11-15T08:53:22;12.17;77.76
13713;DHT22;6928;50.546;7.120;2022-11-15T08:55:49;12.17;77.77
13713;DHT22;6928;50.546;7.120;2022-11-15T08:58:16;12.28;77.94
13713;DHT22;6928;50.546;7.120;2022-11-15T09:00:42;12.35;76.95
13713;DHT22;6928;50.546;7.120;2022-11-15T09:03:09;12.41;76.54
13713;DHT22;6928;50.546;7.120;2022-11-15T09:05:36;12.44;74.85
13713;DHT22;6928;50.546;7.120;2022-11-15T09:08:03;12.49;75.52
13713;DHT22;6928;50.546;7.120;2022-11-15T09:10:31;12.48;74.81
13713;DHT22;6928;50.546;7.120;2022-11-15T09:12:58;12.46;74.11
13713;DHT22;6928;50.546;7.120;2022-11-15T09:15:25;12.49;74.24
13713;DHT22;6928;50.546;7.120;2022-11-15T09:17:51;12.55;73.50
13713;DHT22;6928;50.546;7.120;2022-11-15T09:20:18;12.59;73.02
13713;DHT22;6928;50.546;7.120;2022-11-15T09:22:44;12.60;73.42
13713;DHT22;6928;50.546;7.120;2022-11-15T09:25:11;12.73;73.33
13713;DHT22;6928;50.546;7.120;2022-11-15T09:27:39;12.81;72.84
13713;DHT22;6928;50.546;7.120;2022-11-15T09:30:07;12.80;72.35
13713;DHT22;6928;50.546;7.120;2022-11-15T09:32:33;13.02;71.44
13713;DHT22;6928;50.546;7.120;2022-11-15T09:35:00;12.94;70.99
13713;DHT22;6928;50.546;7.120;2022-11-15T09:37:28;12.94;70.55
13713;DHT22;6928;50.546;7.120;2022-11-15T09:39:55;12.94;70.28
13713;DHT22;6928;50.546;7.120;2022-11-15T09:42:31;12.94;69.70
13713;DHT22;6928;50.546;7.120;2022-11-15T09:45:15;12.93;67.66
13713;DHT22;6928;50.546;7.120;2022-11-15T09:50:50;13.23;67.96
13713;DHT22;6928;50.546;7.120;2022-11-15T09:53:26;13.18;67.52
13713;DHT22;6928;50.546;7.120;2022-11-15T09:55:59;13.13;66.37
13713;DHT22;6928;50.546;7.120;2022-11-15T09:58:33;13.10;66.58
13713;DHT22;6928;50.546;7.120;2022-11-15T10:01:06;13.15;67.26
13713;DHT22;6928;50.546;7.120;2022-11-15T10:03:35;13.25;67.14
13713;DHT22;6928;50.546;7.120;2022-11-15T10:06:04;13.44;67.09
13713;DHT22;6928;50.546;7.120;2022-11-15T10:08:39;13.30;66.20
13713;DHT22;6928;50.546;7.120;2022-11-15T10:11:08;13.36;66.26
13713;DHT22;6928;50.546;7.120;2022-11-15T10:13:39;13.61;66.52
13713;DHT22;6928;50.546;7.120;2022-11-15T10:16:16;13.56;67.56
13713;DHT22;6928;50.546;7.120;2022-11-15T10:18:53;13.36;68.01
13713;DHT22;6928;50.546;7.120;2022-11-15T10:21:27;13.54;67.61
13713;DHT22;6928;50.546;7.120;2022-11-15T10:23:56;13.62;67.45
13713;DHT22;6928;50.546;7.120;2022-11-15T10:26:23;13.65;67.12
13713;DHT22;6928;50.546;7.120;2022-11-15T10:28:50;13.85;66.96
13713;DHT22;6928;50.546;7.120;2022-11-15T10:31:28;13.96;66.55
13713;DHT22;6928;50.546;7.120;2022-11-15T10:34:08;14.00;66.80
13713;DHT22;6928;50.546;7.120;2022-11-15T10:36:38;13.92;67.02
13713;DHT22;6928;50.546;7.120;2022-11-15T10:39:04;14.12;66.63
13713;DHT22;6928;50.546;7.120;2022-11-15T10:41:35;14.17;66.92
13713;DHT22;6928;50.546;7.120;2022-11-15T10:44:20;14.24;67.37
13713;DHT22;6928;50.546;7.120;2022-11-15T10:49:54;14.57;65.55
13713;DHT22;6928;50.546;7.120;2022-11-15T10:52:21;14.60;65.28
13713;DHT22;6928;50.546;7.120;2022-11-15T10:54:51;14.53;64.28
13713;DHT22;6928;50.546;7.120;2022-11-15T10:57:22;14.61;63.75
13713;DHT22;6928;50.546;7.120;2022-11-15T10:59:51;14.75;63.01
13713;DHT22;6928;50.546;7.120;2022-11-15T11:02:32;14.41;62.47
13713;DHT22;6928;50.546;7.120;2022-11-15T11:05:00;14.31;62.97
13713;DHT22;6928;50.546;7.120;2022-11-15T11:07:29;14.55;62.98
13713;DHT22;6928;50.546;7.120;2022-11-15T11:10:01;14.79;63.19
13713;DHT22;6928;50.546;7.120;2022-11-15T11:12:30;15.22;61.97
13713;DHT22;6928;50.546;7.120;2022-11-15T11:14:59;15.43;61.90
13713;DHT22;6928;50.546;7.120;2022-11-15T11:17:34;15.39;61.39
13713;DHT22;6928;50.546;7.120;2022-11-15T11:20:09;15.29;62.48
13713;DHT22;6928;50.546;7.120;2022-11-15T11:22:46;15.39;62.70
13713;DHT22;6928;50.546;7.120;2022-11-15T11:25:22;15.39;62.93
13713;DHT22;6928;50.546;7.120;2022-11-15T11:28:04;15.53;63.24
13713;DHT22;6928;50.546;7.120;2022-11-15T11:30:40;15.33;63.64
13713;DHT22;6928;50.546;7.120;2022-11-15T11:33:16;15.17;63.58
13713;DHT22;6928;50.546;7.120;2022-11-15T11:35:50;14.88;64.51
13713;DHT22;6928;50.546;7.120;2022-11-15T11:38:32;15.13;64.82
13713;DHT22;6928;50.546;7.120;2022-11-15T11:41:08;14.98;65.34
13713;DHT22;6928;50.546;7.120;2022-11-15T11:43:41;14.93;66.03
13713;DHT22;6928;50.546;7.120;2022-11-15T11:49:16;14.71;65.31
13713;DHT22;6928;50.546;7.120;2022-11-15T11:51:47;14.54;65.01
13713;DHT22;6928;50.546;7.120;2022-11-15T11:54:20;14.47;65.22
13713;DHT22;6928;50.546;7.120;2022-11-15T11:56:48;14.55;65.88
13713;DHT22;6928;50.546;7.120;2022-11-15T11:59:22;14.53;65.80
13713;DHT22;6928;50.546;7.120;2022-11-15T12:01:50;14.50;66.36
13713;DHT22;6928;50.546;7.120;2022-11-15T12:04:21;14.53;66.39
13713;DHT22;6928;50.546;7.120;2022-11-15T12:06:55;14.42;67.03
13713;DHT22;6928;50.546;7.120;2022-11-15T12:09:29;14.41;67.13
13713;DHT22;6928;50.546;7.120;2022-11-15T12:12:04;14.45;67.72
13713;DHT22;6928;50.546;7.120;2022-11-15T12:14:37;14.44;67.55
13713;DHT22;6928;50.546;7.120;2022-11-15T12:17:04;14.50;68.07
13713;DHT22;6928;50.546;7.120;2022-11-15T12:19:32;14.64;67.95
13713;DHT22;6928;50.546;7.120;2022-11-15T12:22:02;14.62;67.95
13713;DHT22;6928;50.546;7.120;2022-11-15T12:24:34;14.75;68.34
13713;DHT22;6928;50.546;7.120;2022-11-15T12:27:08;14.65;69.04
13713;DHT22;6928;50.546;7.120;2022-11-15T12:29:41;14.72;68.91
13713;DHT22;6928;50.546;7.120;2022-11-15T12:32:24;14.69;69.52
13713;DHT22;6928;50.546;7.120;2022-11-15T12:34:54;14.65;70.13
13713;DHT22;6928;50.546;7.120;2022-11-15T12:37:52;14.57;70.58
13713;DHT22;6928;50.546;7.120;2022-11-15T12:40:29;14.58;70.87
13713;DHT22;6928;50.546;7.120;2022-11-15T12:45:41;14.54;70.95
13713;DHT22;6928;50.546;7.120;2022-11-15T12:51:22;14.61;71.53
13713;DHT22;6928;50.546;7.120;2022-11-15T12:53:49;14.51;71.94
13713;DHT22;6928;50.546;7.120;2022-11-15T12:56:22;14.50;71.36
13713;DHT22;6928;50.546;7.120;2022-11-15T12:58:54;14.53;71.70
13713;DHT22;6928;50.546;7.120;2022-11-15T13:01:57;14.58;71.66
13713;DHT22;6928;50.546;7.120;2022-11-15T13:04:27;14.62;71.22
13713;DHT22;6928;50.546;7.120;2022-11-15T13:06:57;14.58;71.49
13713;DHT22;6928;50.546;7.120;2022-11-15T13:12:49;14.71;72.15
13713;DHT22;6928;50.546;7.120;2022-11-15T13:15:43;14.89;72.04
13713;DHT22;6928;50.546;7.120;2022-11-15T13:21:21;14.79;71.72
13713;DHT22;6928;50.546;7.120;2022-11-15T13:24:13;14.85;71.90
13713;DHT22;6928;50.546;7.120;2022-11-15T13:26:40;14.68;72.41
13713;DHT22;6928;50.546;7.120;2022-11-15T13:29:15;14.61;72.42
13713;DHT22;6928;50.546;7.120;2022-11-15T13:31:43;14.57;72.78
13713;DHT22;6928;50.546;7.120;2022-11-15T13:34:29;14.64;72.80
13713;DHT22;6928;50.546;7.120;2022-11-15T13:36:58;14.47;73.28
13713;DHT22;6928;50.546;7.120;2022-11-15T13:39:29;14.51;73.34
13713;DHT22;6928;50.546;7.120;2022-11-15T13:41:56;14.54;73.32
13713;DHT22;6928;50.546;7.120;2022-11-15T13:44:24;14.57;73.40
13713;DHT22;6928;50.546;7.120;2022-11-15T13:47:03;14.51;73.49
13713;DHT22;6928;50.546;7.120;2022-11-15T13:49:30;14.51;73.70
13713;DHT22;6928;50.546;7.120;2022-11-15T13:51:59;14.62;73.16
13713;DHT22;6928;50.546;7.120;2022-11-15T13:54:30;14.72;72.27
13713;DHT22;6928;50.546;7.120;2022-11-15T13:57:02;14.68;72.65
13713;DHT22;6928;50.546;7.120;2022-11-15T13:59:30;14.75;70.39
13713;DHT22;6928;50.546;7.120;2022-11-15T14:02:01;14.85;70.32
13713;DHT22;6928;50.546;7.120;2022-11-15T14:04:30;14.74;70.88
13713;DHT22;6928;50.546;7.120;2022-11-15T14:06:59;14.76;71.23
13713;DHT22;6928;50.546;7.120;2022-11-15T14:09:36;14.81;70.98
13713;DHT22;6928;50.546;7.120;2022-11-15T14:12:28;14.81;70.88
13713;DHT22;6928;50.546;7.120;2022-11-15T14:14:56;14.72;71.41
13713;DHT22;6928;50.546;7.120;2022-11-15T14:17:34;14.64;71.55
13713;DHT22;6928;50.546;7.120;2022-11-15T14:20:02;14.60;71.98
13713;DHT22;6928;50.546;7.120;2022-11-15T14:22:57;14.64;71.92
13713;DHT22;6928;50.546;7.120;2022-11-15T14:25:26;14.60;72.25
13713;DHT22;6928;50.546;7.120;2022-11-15T14:28:12;14.57;72.45
13713;DHT22;6928;50.546;7.120;2022-11-15T14:30:43;14.53;72.94
13713;DHT22;6928;50.546;7.120;2022-11-15T14:33:19;14.47;73.27
13713;DHT22;6928;50.546;7.120;2022-11-15T14:35:46;14.40;73.93
13713;DHT22;6928;50.546;7.120;2022-11-15T14:38:13;14.38;74.15
13713;DHT22;6928;50.546;7.120;2022-11-15T14:40:42;14.44;73.98
13713;DHT22;6928;50.546;7.120;2022-11-15T14:43:09;14.41;74.32
13713;DHT22;6928;50.546;7.120;2022-11-15T14:45:37;14.45;74.36
13713;DHT22;6928;50.546;7.120;2022-11-15T14:48:04;14.33;74.60
13713;DHT22;6928;50.546;7.120;2022-11-15T14:50:32;14.33;74.75
13713;DHT22;6928;50.546;7.120;2022-11-15T14:52:59;14.25;75.38
13713;DHT22;6928;50.546;7.120;2022-11-15T14:55:27;14.25;75.41
13713;DHT22;6928;50.546;7.120;2022-11-15T14:57:57;14.20;75.98
13713;DHT22;6928;50.546;7.120;2022-11-15T15:00:24;14.17;76.02
13713;DHT22;6928;50.546;7.120;2022-11-15T15:02:53;14.09;76.63
13713;DHT22;6928;50.546;7.120;2022-11-15T15:05:22;14.07;76.43
13713;DHT22;6928;50.546;7.120;2022-11-15T15:07:49;14.09;76.62
13713;DHT22;6928;50.546;7.120;2022-11-15T15:10:17;14.04;76.70
13713;DHT22;6928;50.546;7.120;2022-11-15T15:12:43;13.99;76.98
13713;DHT22;6928;50.546;7.120;2022-11-15T15:15:17;13.92;77.17
13713;DHT22;6928;50.546;7.120;2022-11-15T15:17:48;13.89;77.39
13713;DHT22;6928;50.546;7.120;2022-11-15T15:20:15;13.81;77.37
13713;DHT22;6928;50.546;7.120;2022-11-15T15:22:41;13.82;77.32
13713;DHT22;6928;50.546;7.120;2022-11-15T15:25:22;13.81;77.67
13713;DHT22;6928;50.546;7.120;2022-11-15T15:27:48;13.79;77.68
13713;DHT22;6928;50.546;7.120;2022-11-15T15:30:17;13.76;77.57
13713;DHT22;6928;50.546;7.120;2022-11-15T15:32:44;13.69;77.84
13713;DHT22;6928;50.546;7.120;2022-11-15T15:35:12;13.71;77.72
13713;DHT22;6928;50.546;7.120;2022-11-15T15:37:39;13.73;77.98
13713;DHT22;6928;50.546;7.120;2022-11-15T15:40:10;13.62;78.25
13713;DHT22;6928;50.546;7.120;2022-11-15T15:42:39;13.59;78.32
13713;DHT22;6928;50.546;7.120;2022-11-15T15:45:07;13.61;78.24
13713;DHT22;6928;50.546;7.120;2022-11-15T15:47:35;13.54;78.47
13713;DHT22;6928;50.546;7.120;2022-11-15T15:50:03;13.49;78.84
13713;DHT22;6928;50.546;7.120;2022-11-15T15:52:30;13.51;78.68
13713;DHT22;6928;50.546;7.120;2022-11-15T15:54:56;13.42;78.94
13713;DHT22;6928;50.546;7.120;2022-11-15T15:57:23;13.45;78.89
13713;DHT22;6928;50.546;7.120;2022-11-15T15:59:49;13.39;79.13
13713;DHT22;6928;50.546;7.120;2022-11-15T16:02:16;13.44;78.97
13713;DHT22;6928;50.546;7.120;2022-11-15T16:04:44;13.41;79.15
13713;DHT22;6928;50.546;7.120;2022-11-15T16:07:16;13.35;79.27
13713;DHT22;6928;50.546;7.120;2022-11-15T16:09:43;13.38;79.20
13713;DHT22;6928;50.546;7.120;2022-11-15T16:12:30;13.34;79.28
13713;DHT22;6928;50.546;7.120;2022-11-15T16:14:57;13.30;79.44
13713;DHT22;6928;50.546;7.120;2022-11-15T16:17:26;13.38;78.89
13713;DHT22;6928;50.546;7.120;2022-11-15T16:19:54;13.39;79.04
13713;DHT22;6928;50.546;7.120;2022-11-15T16:22:21;13.32;79.06
13713;DHT22;6928;50.546;7.120;2022-11-15T16:24:48;13.35;79.06
13713;DHT22;6928;50.546;7.120;2022-11-15T16:27:16;13.36;79.03
13713;DHT22;6928;50.546;7.120;2022-11-15T16:29:43;13.39;78.81